Time;durP1;ratioP1;P1;durP2;ratioP2;P2;SDS_P1;SDS_P2;PMS_P1;PMS_P2;Temp;Humidity;BMP_temperature;BMP_pressure;BME280_temperature;BME280_humidity;BME280_pressure;Samples;Min_cycle;Max_cycle;Signal;HPM_P1;HPM_P2
2022/08/22 00:02:31;;;;;;;7.97;3.95;;;14.30;1.00;;;;;;5104275;28;20186;-81
2022/08/22 00:05:46;;;;;;;6.25;3.67;;;14.20;1.00;;;;;;5109774;28;20407;-81
2022/08/22 00:09:28;;;;;;;6.60;3.80;;;14.20;1.00;;;;;;5105838;28;20043;-81
2022/08/22 00:12:53;;;;;;;8.90;4.22;;;14.20;1.00;;;;;;5034304;28;20049;-81
2022/08/22 00:15:48;;;;;;;9.35;3.97;;;14.20;1.00;;;;;;5108778;28;20135;-81
2022/08/22 00:18:54;;;;;;;8.60;3.88;;;14.20;1.00;;;;;;5108479;28;20075;-81
2022/08/22 00:22:12;;;;;;;6.35;3.58;;;14.20;1.00;;;;;;5112797;28;20044;-81
2022/08/22 00:25:37;;;;;;;6.47;3.55;;;14.20;1.00;;;;;;5093420;28;20055;-81
2022/08/22 00:28:32;;;;;;;7.20;3.67;;;14.30;1.00;;;;;;5108641;28;20043;-81
2022/08/22 00:31:41;;;;;;;7.38;3.70;;;14.30;1.00;;;;;;5119832;28;20039;-82
2022/08/22 00:34:49;;;;;;;10.77;4.20;;;14.30;1.00;;;;;;5104998;28;20335;-83
2022/08/22 00:37:41;;;;;;;8.77;4.15;;;14.30;1.00;;;;;;5113184;28;20065;-83
2022/08/22 00:40:40;;;;;;;6.82;4.30;;;14.40;1.00;;;;;;5115966;28;20054;-81
2022/08/22 00:43:58;;;;;;;11.60;4.32;;;14.40;1.00;;;;;;5103489;28;20459;-82
2022/08/22 00:47:19;;;;;;;9.57;4.28;;;14.30;1.00;;;;;;5111992;28;20104;-83
2022/08/22 00:50:36;;;;;;;7.20;3.95;;;14.30;1.00;;;;;;5104719;28;20040;-81
2022/08/22 00:53:41;;;;;;;10.68;3.80;;;14.20;1.00;;;;;;5109550;28;20074;-83
2022/08/22 00:56:38;;;;;;;11.35;4.22;;;14.20;1.00;;;;;;5111557;27;20081;-82
2022/08/22 00:59:33;;;;;;;8.93;3.80;;;14.10;1.00;;;;;;5114096;28;20108;-82
2022/08/22 01:02:52;;;;;;;7.13;3.08;;;14.10;1.00;;;;;;5102914;28;20391;-82
2022/08/22 01:05:58;;;;;;;12.73;3.83;;;14.00;1.00;;;;;;5077663;28;20051;-81
2022/08/22 01:09:00;;;;;;;6.43;3.90;;;14.10;1.00;;;;;;5115602;28;20094;-82
2022/08/22 01:12:22;;;;;;;7.50;3.63;;;14.40;1.00;;;;;;5121887;27;20481;-82
2022/08/22 01:15:15;;;;;;;5.83;3.17;;;14.50;1.00;;;;;;5101656;28;20390;-82
2022/08/22 01:18:23;;;;;;;8.63;3.78;;;14.50;1.00;;;;;;5094203;28;20044;-82
2022/08/22 01:21:45;;;;;;;8.93;3.90;;;14.40;1.00;;;;;;5102233;27;20039;-82
2022/08/22 01:25:19;;;;;;;6.80;4.07;;;14.40;1.00;;;;;;5112047;27;20047;-83
2022/08/22 01:28:23;;;;;;;6.93;3.67;;;14.20;1.00;;;;;;5117586;27;20069;-82
2022/08/22 01:31:56;;;;;;;7.68;3.60;;;14.10;1.00;;;;;;5110982;27;20040;-82
2022/08/22 01:34:49;;;;;;;8.30;3.17;;;14.00;1.00;;;;;;5102328;28;20052;-82
2022/08/22 01:38:03;;;;;;;5.32;3.30;;;13.90;1.00;;;;;;5120490;27;20077;-83
2022/08/22 01:40:56;;;;;;;5.63;3.60;;;14.00;1.00;;;;;;5115651;28;20032;-82
2022/08/22 01:44:28;;;;;;;12.07;3.60;;;14.10;1.00;;;;;;5130802;28;20036;-81
2022/08/22 01:47:28;;;;;;;6.80;3.80;;;14.30;1.00;;;;;;5132409;27;20043;-83
2022/08/22 01:50:46;;;;;;;10.90;3.90;;;14.30;1.00;;;;;;5118255;28;20040;-83
2022/08/22 01:53:45;;;;;;;6.90;3.83;;;14.20;1.00;;;;;;5088496;28;20043;-83
2022/08/22 01:56:37;;;;;;;8.10;3.78;;;14.20;1.00;;;;;;5096710;28;20173;-83
2022/08/22 01:59:45;;;;;;;8.45;4.22;;;14.10;1.00;;;;;;5100227;28;20047;-83
2022/08/22 02:03:10;;;;;;;6.10;3.38;;;13.90;1.00;;;;;;5107077;27;20043;-83
2022/08/22 02:06:12;;;;;;;11.13;3.67;;;13.80;1.00;;;;;;5073254;28;20131;-82
2022/08/22 02:09:09;;;;;;;7.00;3.20;;;13.80;1.00;;;;;;5103313;27;20040;-83
2022/08/22 02:12:17;;;;;;;7.53;3.85;;;13.80;1.00;;;;;;5104731;27;20063;-83
2022/08/22 02:15:21;;;;;;;4.93;3.80;;;14.00;1.00;;;;;;5104530;28;20052;-82
2022/08/22 02:18:13;;;;;;;7.53;3.78;;;14.10;1.00;;;;;;5092066;28;20166;-83
2022/08/22 02:21:33;;;;;;;8.45;4.10;;;14.10;1.00;;;;;;5113822;28;20457;-83
2022/08/22 02:24:33;;;;;;;8.55;4.78;;;14.00;1.00;;;;;;5100141;27;20420;-82
2022/08/22 02:27:23;;;;;;;7.25;4.55;;;14.00;1.00;;;;;;5100826;27;20058;-82
2022/08/22 02:30:42;;;;;;;6.70;4.07;;;13.90;1.00;;;;;;5119248;27;20040;-82
2022/08/22 02:33:44;;;;;;;11.00;4.35;;;13.80;1.00;;;;;;5103446;27;20102;-82
2022/08/22 02:36:46;;;;;;;7.05;4.80;;;13.70;1.00;;;;;;5114826;27;20101;-83
2022/08/22 02:39:36;;;;;;;10.18;4.70;;;13.60;1.00;;;;;;5119053;27;20050;-83
2022/08/22 02:42:45;;;;;;;7.65;4.55;;;13.50;1.00;;;;;;5089841;28;20396;-82
2022/08/22 02:45:41;;;;;;;9.05;4.68;;;13.40;1.00;;;;;;5119999;28;20069;-83
2022/08/22 02:49:01;;;;;;;8.35;4.00;;;13.40;1.00;;;;;;5109849;28;20069;-81
2022/08/22 02:52:05;;;;;;;9.05;3.95;;;13.30;1.90;;;;;;5117769;28;20028;-80
2022/08/22 02:54:58;;;;;;;10.07;4.80;;;13.20;9.30;;;;;;5119522;28;20036;-83
2022/08/22 02:58:04;;;;;;;6.43;4.32;;;13.10;17.20;;;;;;5129185;28;20043;-83
2022/08/22 03:01:20;;;;;;;10.07;4.88;;;13.00;25.60;;;;;;5128524;28;20412;-83
2022/08/22 03:04:21;;;;;;;8.32;4.47;;;13.00;30.90;;;;;;5095220;28;20115;-82
2022/08/22 03:07:22;;;;;;;6.35;3.92;;;13.00;35.60;;;;;;5114573;27;20097;-83
2022/08/22 03:10:23;;;;;;;12.48;4.70;;;13.00;36.90;;;;;;5115607;28;20092;-82
2022/08/22 03:13:23;;;;;;;6.15;3.75;;;13.00;40.00;;;;;;5091397;28;20062;-82
2022/08/22 03:16:23;;;;;;;9.32;4.35;;;12.90;48.30;;;;;;5095619;27;20043;-83
2022/08/22 03:19:32;;;;;;;7.35;4.20;;;12.80;58.60;;;;;;5099639;28;20498;-82
2022/08/22 03:22:42;;;;;;;8.70;4.30;;;12.70;69.90;;;;;;5106371;27;20098;-82
2022/08/22 03:25:51;;;;;;;9.05;3.97;;;12.60;82.20;;;;;;5110418;28;20130;-83
2022/08/22 03:28:50;;;;;;;7.43;4.30;;;12.50;99.90;;;;;;5120281;27;20123;-82
2022/08/22 03:32:05;;;;;;;8.73;4.43;;;12.30;99.90;;;;;;5096063;27;20044;-83
2022/08/22 03:35:20;;;;;;;9.00;4.50;;;12.30;99.90;;;;;;5115361;27;20054;-82
2022/08/22 03:38:13;;;;;;;8.70;5.15;;;12.30;99.90;;;;;;5120407;27;20051;-82
2022/08/22 03:41:31;;;;;;;7.47;4.15;;;12.40;99.90;;;;;;5106661;27;20496;-83
2022/08/22 03:44:47;;;;;;;11.63;4.88;;;12.50;99.90;;;;;;5103231;28;20050;-82
2022/08/22 03:47:53;;;;;;;7.70;4.25;;;12.60;98.70;;;;;;5114239;28;20078;-83
2022/08/22 03:51:09;;;;;;;6.32;4.43;;;12.80;90.70;;;;;;5104050;28;20040;-83
2022/08/22 03:54:17;;;;;;;8.13;4.60;;;12.90;79.30;;;;;;5114498;27;20051;-83
2022/08/22 03:57:33;;;;;;;7.95;4.43;;;12.90;74.30;;;;;;5111605;27;20134;-83
2022/08/22 04:04:41;;;;;;;9.15;4.72;;;12.70;86.20;;;;;;5021727;28;20180;-82
2022/08/22 04:08:01;;;;;;;12.77;5.88;;;12.60;98.10;;;;;;5014512;28;20061;-82
2022/08/22 04:11:38;;;;;;;9.30;5.15;;;12.40;99.90;;;;;;5031029;28;20049;-82
2022/08/22 04:14:58;;;;;;;8.02;4.30;;;12.10;99.90;;;;;;5057846;28;20055;-83
2022/08/22 04:17:52;;;;;;;7.20;4.80;;;12.00;99.90;;;;;;5106479;28;20055;-81
2022/08/22 04:21:06;;;;;;;12.68;5.57;;;12.10;99.90;;;;;;5112879;28;20047;-80
2022/08/22 04:24:19;;;;;;;11.20;5.25;;;12.10;99.90;;;;;;5107481;28;20095;-79
2022/08/22 04:27:46;;;;;;;14.18;6.90;;;12.00;99.90;;;;;;5100452;27;20466;-80
2022/08/22 04:30:39;;;;;;;8.43;5.90;;;12.00;99.90;;;;;;5112715;28;20134;-81
2022/08/22 04:33:35;;;;;;;13.10;6.38;;;11.90;99.90;;;;;;5102012;28;20072;-80
2022/08/22 04:36:38;;;;;;;11.00;6.25;;;11.90;99.90;;;;;;5110452;27;20044;-79
2022/08/22 04:39:39;;;;;;;9.57;6.65;;;11.90;99.90;;;;;;5101189;27;20133;-81
2022/08/22 04:42:39;;;;;;;10.45;5.63;;;12.00;99.90;;;;;;5097350;28;20382;-81
2022/08/22 04:45:42;;;;;;;9.88;6.43;;;12.00;99.90;;;;;;5116521;27;20039;-80
2022/08/22 04:48:39;;;;;;;;;;;12.10;99.90;;;;;;5092758;28;20044;-81
2022/08/22 04:51:37;;;;;;;8.48;5.70;;;12.20;99.90;;;;;;5112747;28;20343;-80
2022/08/22 04:54:44;;;;;;;12.18;5.53;;;12.20;99.90;;;;;;5118772;27;20046;-81
2022/08/22 04:57:43;;;;;;;7.85;4.90;;;12.20;99.90;;;;;;5105626;27;20504;-81
2022/08/22 05:00:40;;;;;;;11.10;5.03;;;12.30;99.90;;;;;;5107180;27;20109;-81
2022/08/22 05:03:31;;;;;;;7.72;5.65;;;12.30;99.90;;;;;;5107659;28;20044;-81
2022/08/22 05:06:25;;;;;;;8.48;5.38;;;12.40;99.90;;;;;;5122133;27;20171;-81
2022/08/22 05:09:19;;;;;;;8.85;5.57;;;12.30;99.90;;;;;;5118588;27;20047;-81
2022/08/22 05:12:13;;;;;;;20.55;13.93;;;12.30;99.90;;;;;;5099848;28;20044;-83
2022/08/22 05:15:06;;;;;;;26.92;16.38;;;12.30;99.90;;;;;;5105259;28;20442;-81
2022/08/22 05:18:01;;;;;;;9.65;5.65;;;12.30;99.90;;;;;;5113383;27;20040;-80
2022/08/22 05:20:52;;;;;;;14.38;6.43;;;12.40;99.90;;;;;;5092231;28;20157;-81
2022/08/22 05:23:48;;;;;;;8.82;5.72;;;12.50;99.90;;;;;;5099234;28;20044;-81
2022/08/22 05:26:52;;;;;;;9.80;5.70;;;12.60;99.90;;;;;;5101846;27;20063;-80
2022/08/22 05:29:43;;;;;;;8.13;4.78;;;12.70;99.90;;;;;;5098311;28;20043;-78
2022/08/22 05:32:42;;;;;;;9.57;5.15;;;12.70;99.90;;;;;;5089634;28;20050;-81
2022/08/22 05:35:40;;;;;;;12.88;6.57;;;12.80;99.90;;;;;;5113307;27;20043;-81
2022/08/22 05:38:39;;;;;;;12.60;6.15;;;13.00;99.90;;;;;;5114862;27;20047;-85
2022/08/22 05:41:31;;;;;;;8.68;6.18;;;13.10;99.90;;;;;;5110820;27;20067;-81
2022/08/22 05:44:24;;;;;;;10.63;5.57;;;13.10;99.90;;;;;;5107851;27;20048;-82
2022/08/22 05:47:21;;;;;;;10.68;5.85;;;13.10;99.90;;;;;;5106172;27;20044;-83
2022/08/22 05:50:17;;;;;;;9.35;4.97;;;13.20;99.90;;;;;;5100254;27;20080;-84
2022/08/22 05:53:16;;;;;;;11.35;5.60;;;13.20;99.90;;;;;;5109261;27;20474;-83
2022/08/22 05:56:25;;;;;;;14.77;5.10;;;13.30;99.90;;;;;;5091763;27;20411;-82
2022/08/22 05:59:22;;;;;;;7.40;4.10;;;13.50;99.90;;;;;;5101380;28;20040;-82
2022/08/22 06:02:32;;;;;;;12.70;5.32;;;13.70;99.90;;;;;;5100264;28;20363;-82
2022/08/22 06:05:31;;;;;;;9.50;5.50;;;14.10;99.90;;;;;;5115614;27;20071;-81
2022/08/22 06:08:33;;;;;;;10.52;5.30;;;14.40;99.90;;;;;;5110890;27;20055;-81
2022/08/22 06:11:34;;;;;;;7.90;4.57;;;14.50;99.90;;;;;;5115815;27;20051;-81
2022/08/22 06:14:27;;;;;;;9.57;5.28;;;14.60;99.90;;;;;;5111276;27;20050;-85
2022/08/22 06:17:20;;;;;;;8.80;5.47;;;14.80;99.90;;;;;;5110029;27;20040;-83
2022/08/22 06:20:09;;;;;;;9.27;4.95;;;14.80;99.90;;;;;;5111035;27;20350;-80
2022/08/22 06:23:00;;;;;;;9.65;5.25;;;14.90;99.90;;;;;;5097838;27;20043;-81
2022/08/22 06:25:49;;;;;;;9.70;5.38;;;15.00;99.90;;;;;;5106459;27;20055;-80
2022/08/22 06:28:44;;;;;;;8.95;4.97;;;15.10;99.90;;;;;;5090961;28;20478;-82
2022/08/22 06:31:48;;;;;;;7.45;4.82;;;15.30;99.20;;;;;;5093318;28;20189;-81
2022/08/22 06:34:39;;;;;;;12.38;5.18;;;15.60;95.90;;;;;;5098904;28;20044;-81
2022/08/22 06:37:35;;;;;;;12.88;4.50;;;15.80;92.00;;;;;;5118650;27;20047;-82
2022/08/22 06:40:24;;;;;;;6.93;4.60;;;16.00;88.70;;;;;;5103350;27;20036;-82
2022/08/22 06:43:12;;;;;;;8.15;5.10;;;16.20;82.10;;;;;;5107169;27;20040;-82
2022/08/22 06:46:01;;;;;;;5.88;4.20;;;16.40;70.00;;;;;;5111877;27;20062;-82
2022/08/22 06:48:50;;;;;;;7.57;4.20;;;16.70;65.20;;;;;;5111186;27;20085;-82
2022/08/22 06:51:40;;;;;;;7.70;4.03;;;16.90;47.10;;;;;;5103596;27;20127;-82
2022/08/22 06:54:32;;;;;;;7.28;3.50;;;17.20;37.90;;;;;;5087578;28;20039;-80
2022/08/22 06:57:33;;;;;;;5.45;3.55;;;17.50;36.60;;;;;;5106623;27;20047;-80
2022/08/22 07:00:24;;;;;;;10.07;3.42;;;17.90;23.80;;;;;;5117086;27;20047;-80
2022/08/22 07:03:50;;;;;;;8.52;3.80;;;18.10;5.10;;;;;;5112938;28;20050;-80
2022/08/22 07:06:44;;;;;;;5.22;3.20;;;18.50;1.00;;;;;;5068907;28;20155;-80
2022/08/22 07:09:39;;;;;;;5.15;3.38;;;19.10;1.00;;;;;;5096495;28;20138;-80
2022/08/22 07:12:34;;;;;;;5.43;3.00;;;19.50;1.00;;;;;;5111655;27;20054;-80
2022/08/22 07:15:33;;;;;;;7.05;3.35;;;20.00;1.00;;;;;;5096082;27;20055;-81
2022/08/22 07:18:25;;;;;;;4.82;2.95;;;20.50;1.00;;;;;;5109529;27;20126;-80
2022/08/22 07:21:28;;;;;;;6.10;3.10;;;20.80;1.00;;;;;;5104814;27;20058;-80
2022/08/22 07:24:23;;;;;;;4.78;3.30;;;21.10;1.00;;;;;;5115894;27;20043;-80
2022/08/22 07:27:11;;;;;;;6.50;3.60;;;21.50;1.00;;;;;;5098139;27;20103;-80
2022/08/22 07:30:14;;;;;;;7.03;3.40;;;21.50;1.00;;;;;;5110916;27;20055;-82
2022/08/22 07:33:43;;;;;;;5.15;3.33;;;21.50;1.00;;;;;;5108821;28;20043;-80
2022/08/22 07:36:47;;;;;;;9.05;3.33;;;21.40;1.00;;;;;;5105453;28;20047;-80
2022/08/22 07:39:44;;;;;;;6.32;3.22;;;21.60;1.00;;;;;;5096656;28;20043;-79
2022/08/22 07:42:38;;;;;;;8.43;3.53;;;21.80;1.00;;;;;;5116129;27;20382;-81
2022/08/22 07:45:31;;;;;;;5.63;3.25;;;22.30;1.00;;;;;;5112609;27;20054;-81
2022/08/22 07:48:22;;;;;;;7.38;4.15;;;22.10;1.00;;;;;;5112648;27;20047;-79
2022/08/22 07:51:19;;;;;;;9.35;4.18;;;22.00;1.00;;;;;;5094822;27;20044;-79
2022/08/22 07:54:21;;;;;;;6.40;3.33;;;22.40;1.00;;;;;;5119644;27;20031;-79
2022/08/22 07:57:29;;;;;;;6.50;3.47;;;22.80;1.00;;;;;;5094746;27;20042;-80
2022/08/22 08:00:19;;;;;;;4.75;2.97;;;22.90;1.00;;;;;;5112129;27;20433;-79
2022/08/22 08:03:07;;;;;;;5.38;3.35;;;23.30;1.00;;;;;;5113535;27;20039;-80
2022/08/22 08:05:55;;;;;;;6.85;3.70;;;24.10;1.00;;;;;;5087450;28;20040;-81
2022/08/22 08:08:46;;;;;;;6.63;3.10;;;24.20;1.00;;;;;;5096611;28;20055;-81
2022/08/22 08:11:39;;;;;;;5.53;2.92;;;25.20;1.00;;;;;;5112605;28;20144;-80
2022/08/22 08:14:28;;;;;;;7.93;3.15;;;26.50;1.00;;;;;;5099516;28;20040;-80
2022/08/22 08:17:26;;;;;;;5.13;3.15;;;26.40;1.00;;;;;;5095855;28;20142;-79
2022/08/22 08:20:21;;;;;;;6.05;3.25;;;26.10;1.00;;;;;;5124588;28;20038;-81
2022/08/22 08:23:10;;;;;;;5.78;2.70;;;26.80;1.00;;;;;;5097356;28;20048;-80
2022/08/22 08:26:23;;;;;;;7.05;2.85;;;27.10;1.00;;;;;;5104751;28;20042;-79
2022/08/22 08:29:10;;;;;;;;;;;28.00;1.00;;;;;;5112195;28;20035;-79
2022/08/22 08:32:02;;;;;;;6.20;2.90;;;27.90;1.00;;;;;;5102472;28;19931;-79
2022/08/22 08:34:51;;;;;;;6.32;4.22;;;28.50;1.00;;;;;;5096087;28;20052;-79
2022/08/22 08:37:47;;;;;;;7.55;2.85;;;29.20;1.00;;;;;;5110054;28;20043;-82
2022/08/22 08:40:53;;;;;;;9.15;3.17;;;30.00;1.00;;;;;;5109121;28;20585;-80
2022/08/22 08:43:46;;;;;;;6.38;2.80;;;30.50;1.00;;;;;;5109761;28;20040;-80
2022/08/22 08:46:42;;;;;;;6.70;2.50;;;29.80;1.00;;;;;;5091414;28;20064;-79
2022/08/22 08:49:55;;;;;;;6.60;2.92;;;30.20;1.00;;;;;;5111730;28;20039;-79
2022/08/22 08:53:01;;;;;;;5.07;2.90;;;31.10;1.00;;;;;;5097718;28;20036;-80
2022/08/22 08:56:11;;;;;;;3.40;2.30;;;31.70;1.00;;;;;;5096547;28;20048;-79
2022/08/22 08:59:06;;;;;;;4.55;2.17;;;32.00;99.90;;;;;;5112043;28;20048;-79
2022/08/22 09:02:14;;;;;;;5.43;2.20;;;32.60;99.90;;;;;;5103367;28;20031;-79
2022/08/22 09:05:51;;;;;;;6.45;2.50;;;32.80;99.90;;;;;;5114905;28;20051;-79
2022/08/22 09:09:06;;;;;;;5.95;2.40;;;31.30;99.90;;;;;;5123079;28;20108;-80
2022/08/22 09:15:39;;;;;;;3.05;1.95;;;31.30;99.90;;;;;;5053851;28;20056;-88
2022/08/22 09:18:41;;;;;;;3.63;2.03;;;31.80;99.90;;;;;;5052741;28;20061;-87
2022/08/22 09:21:52;;;;;;;4.03;2.22;;;32.60;99.90;;;;;;5053138;28;20174;-83
2022/08/22 09:25:01;;;;;;;4.13;2.20;;;33.20;99.90;;;;;;5053792;28;20091;-85
2022/08/22 09:28:11;;;;;;;3.80;2.33;;;33.90;99.90;;;;;;5041486;28;20037;-85
2022/08/22 09:31:24;;;;;;;6.75;2.50;;;33.60;99.90;;;;;;5052171;28;20183;-85
2022/08/22 09:34:59;;;;;;;5.53;2.58;;;33.40;99.90;;;;;;5054190;28;20072;-85
2022/08/22 09:37:52;;;;;;;2.90;2.20;;;33.50;99.90;;;;;;5054501;28;20055;-84
2022/08/22 09:40:53;;;;;;;4.50;2.35;;;33.70;99.90;;;;;;5052248;28;20468;-84
2022/08/22 09:44:31;;;;;;;5.25;2.13;;;34.00;99.90;;;;;;5054598;28;20056;-86
2022/08/22 09:47:44;;;;;;;4.75;2.38;;;33.80;99.90;;;;;;5029459;28;20049;-85
2022/08/22 09:51:05;;;;;;;2.63;2.10;;;34.20;99.90;;;;;;5053879;28;20049;-85
2022/08/22 09:54:22;;;;;;;3.03;2.15;;;35.10;99.90;;;;;;5051573;28;20135;-83
2022/08/22 09:57:32;;;;;;;3.72;2.00;;;34.20;99.90;;;;;;5053517;28;20048;-85
2022/08/22 10:00:46;;;;;;;3.35;1.95;;;34.30;99.90;;;;;;5054342;28;20052;-86
2022/08/22 10:04:18;;;;;;;5.95;2.40;;;34.40;99.90;;;;;;5045652;28;20041;-85
2022/08/22 10:07:30;;;;;;;4.72;2.40;;;34.20;99.90;;;;;;5059085;28;20141;-86
2022/08/22 10:10:39;;;;;;;4.75;2.50;;;34.60;99.90;;;;;;5047808;28;20423;-85
2022/08/22 10:13:32;;;;;;;11.68;2.45;;;35.00;99.90;;;;;;5053729;28;20055;-86
2022/08/22 10:16:48;;;;;;;3.67;2.10;;;35.40;99.90;;;;;;5049645;28;20045;-83
2022/08/22 10:19:50;;;;;;;4.25;2.40;;;35.60;99.90;;;;;;5051665;28;20056;-84
2022/08/22 10:22:57;;;;;;;9.35;2.45;;;35.30;99.90;;;;;;5050716;28;20037;-84
2022/08/22 10:26:04;;;;;;;6.43;2.38;;;33.90;99.90;;;;;;5055167;28;20041;-85
2022/08/22 10:29:00;;;;;;;7.50;2.95;;;34.30;99.90;;;;;;5046725;28;20103;-86
2022/08/22 10:31:58;;;;;;;4.28;2.38;;;34.20;99.90;;;;;;5054313;28;20140;-87
2022/08/22 10:34:55;;;;;;;4.50;2.45;;;33.50;99.90;;;;;;5052038;28;20045;-86
2022/08/22 10:37:53;;;;;;;6.10;2.35;;;32.60;99.90;;;;;;5053716;28;20456;-87
2022/08/22 10:41:11;;;;;;;4.63;2.60;;;33.30;99.90;;;;;;5046336;28;20044;-86
2022/08/22 10:44:09;;;;;;;6.50;2.60;;;33.80;99.90;;;;;;5049726;28;20045;-87
2022/08/22 10:47:07;;;;;;;3.03;2.13;;;34.60;99.90;;;;;;5053159;28;20051;-89
2022/08/22 10:50:07;;;;;;;5.00;2.50;;;34.30;99.90;;;;;;5046411;28;20044;-88
2022/08/22 10:53:32;;;;;;;5.30;2.47;;;32.80;99.90;;;;;;5053634;28;20384;-89
2022/08/22 10:56:27;;;;;;;4.70;2.60;;;30.10;99.90;;;;;;5054294;28;20183;-89
2022/08/22 10:59:39;;;;;;;5.15;2.42;;;29.60;99.90;;;;;;5050328;28;20068;-88
2022/08/22 11:02:45;;;;;;;3.92;2.63;;;30.90;99.90;;;;;;5051944;28;20053;-86
2022/08/22 11:05:55;;;;;;;4.72;2.67;;;31.10;99.90;;;;;;5055346;28;20041;-89
2022/08/22 11:09:20;;;;;;;5.72;2.40;;;31.70;99.90;;;;;;5056540;28;20128;-88
2022/08/22 11:12:37;;;;;;;4.97;2.30;;;33.60;99.90;;;;;;5056772;28;20057;-88
2022/08/22 11:15:53;;;;;;;5.10;2.65;;;33.70;99.90;;;;;;5052662;28;20082;-85
2022/08/22 11:18:41;;;;;;;3.80;2.20;;;34.70;99.90;;;;;;5053863;28;20048;-85
2022/08/22 11:21:46;;;;;;;3.15;2.28;;;35.10;99.90;;;;;;5050782;28;20044;-85
2022/08/22 11:24:58;;;;;;;6.05;2.50;;;35.60;99.90;;;;;;5040587;28;20063;-86
2022/08/22 11:28:04;;;;;;;7.93;2.20;;;36.20;99.90;;;;;;5049498;28;20044;-88
2022/08/22 11:31:06;;;;;;;5.15;1.90;;;36.60;99.90;;;;;;5040521;28;20064;-83
2022/08/22 11:34:09;;;;;;;4.63;2.33;;;36.50;99.90;;;;;;5054495;28;20064;-87
2022/08/22 11:37:27;;;;;;;6.78;2.03;;;36.40;99.90;;;;;;5039869;28;20041;-86
2022/08/22 11:40:48;;;;;;;4.10;2.25;;;36.80;99.90;;;;;;5051295;28;20036;-87
2022/08/22 11:43:58;;;;;;;4.80;2.35;;;37.40;99.90;;;;;;5047552;28;20049;-87
2022/08/22 11:46:54;;;;;;;4.50;2.42;;;38.00;99.90;;;;;;5053703;28;20453;-85
2022/08/22 11:49:50;;;;;;;4.35;2.33;;;36.70;99.90;;;;;;5035542;28;20055;-83
2022/08/22 11:52:56;;;;;;;6.20;2.28;;;35.80;99.90;;;;;;5054026;28;20053;-84
2022/08/22 11:56:25;;;;;;;4.65;2.60;;;33.80;99.90;;;;;;5059405;28;20044;-83
2022/08/22 11:59:55;;;;;;;8.02;2.30;;;32.80;99.90;;;;;;5037060;28;20470;-84
2022/08/22 12:03:19;;;;;;;4.50;1.98;;;33.00;99.90;;;;;;5051663;28;20053;-83
2022/08/22 12:06:33;;;;;;;2.95;1.98;;;33.70;99.90;;;;;;5052298;28;20472;-82
2022/08/22 12:09:36;;;;;;;3.78;2.05;;;35.20;99.90;;;;;;5048387;28;20052;-88
2022/08/22 12:12:54;;;;;;;2.40;1.60;;;36.60;99.90;;;;;;5050647;28;20044;-85
2022/08/22 12:16:11;;;;;;;3.00;1.70;;;38.00;99.90;;;;;;5050832;28;20499;-89
2022/08/22 12:19:16;;;;;;;7.63;2.10;;;39.00;99.90;;;;;;5038927;28;20056;-84
2022/08/22 12:22:46;;;;;;;3.40;2.17;;;39.60;99.90;;;;;;5049257;28;20239;-84
2022/08/22 12:26:02;;;;;;;3.00;1.85;;;39.70;99.90;;;;;;5021937;28;20416;-84
2022/08/22 12:29:06;;;;;;;;;;;39.40;99.90;;;;;;5032495;28;20037;-84
2022/08/22 12:32:13;;;;;;;2.58;1.95;;;39.00;99.90;;;;;;5052314;28;20060;-83
2022/08/22 12:35:30;;;;;;;5.38;2.00;;;38.20;99.90;;;;;;5046464;28;20041;-83
2022/08/22 12:38:24;;;;;;;6.35;2.15;;;36.10;99.90;;;;;;5050707;28;20068;-88
2022/08/22 12:41:30;;;;;;;5.03;2.08;;;35.50;99.90;;;;;;5051659;28;20048;-88
2022/08/22 12:44:52;;;;;;;3.92;2.50;;;36.00;99.90;;;;;;5050830;28;20298;-85
2022/08/22 12:47:57;;;;;;;5.32;2.20;;;36.60;99.90;;;;;;5054761;28;20087;-85
2022/08/22 12:51:23;;;;;;;4.05;2.20;;;36.10;99.90;;;;;;5055656;28;20068;-89
2022/08/22 12:54:38;;;;;;;3.90;2.30;;;34.00;99.90;;;;;;5044216;28;20073;-90
2022/08/22 12:57:34;;;;;;;3.85;2.05;;;34.70;99.90;;;;;;5051911;28;20063;-90
2022/08/22 13:00:33;;;;;;;5.13;2.08;;;36.60;99.90;;;;;;5057721;28;20044;-89
2022/08/22 13:03:32;;;;;;;3.88;2.08;;;36.40;99.90;;;;;;5039606;28;20040;-86
2022/08/22 13:06:35;;;;;;;4.45;2.13;;;34.40;99.90;;;;;;5037062;28;20052;-88
2022/08/22 13:09:29;;;;;;;4.55;2.22;;;33.60;99.90;;;;;;5039080;28;20126;-83
2022/08/22 13:12:25;;;;;;;3.00;2.00;;;33.80;99.90;;;;;;5053962;28;20120;-86
2022/08/22 13:15:30;;;;;;;3.53;2.33;;;34.90;99.90;;;;;;5048986;28;20099;-87
2022/08/22 13:18:24;;;;;;;4.22;2.30;;;35.90;99.90;;;;;;5053167;28;20048;-84
2022/08/22 13:21:21;;;;;;;4.85;1.95;;;36.40;99.90;;;;;;5054884;28;20037;-87
2022/08/22 13:24:16;;;;;;;3.97;2.20;;;35.80;99.90;;;;;;5052648;28;20372;-85
2022/08/22 13:27:46;;;;;;;3.83;2.08;;;33.80;99.90;;;;;;5057542;28;20036;-83
2022/08/22 13:30:40;;;;;;;4.57;2.13;;;32.80;99.90;;;;;;5059584;28;20052;-84
2022/08/22 13:33:41;;;;;;;5.70;2.47;;;31.20;99.90;;;;;;5038530;28;20071;-83
2022/08/22 13:36:41;;;;;;;4.28;2.15;;;29.90;99.90;;;;;;5050192;28;20483;-84
2022/08/22 13:39:41;;;;;;;4.57;2.53;;;29.30;99.90;;;;;;5053552;28;20044;-84
2022/08/22 13:42:35;;;;;;;4.53;2.50;;;29.20;99.90;;;;;;5040594;28;20460;-84
2022/08/22 13:45:28;;;;;;;4.50;2.38;;;29.10;99.90;;;;;;5052145;28;20064;-83
2022/08/22 13:48:20;;;;;;;4.03;2.17;;;30.90;99.90;;;;;;5055202;28;20103;-85
2022/08/22 13:51:15;;;;;;;3.72;2.42;;;31.30;99.90;;;;;;5053047;28;20138;-86
2022/08/22 13:54:18;;;;;;;4.50;2.40;;;31.20;99.90;;;;;;5045709;28;20045;-88
2022/08/22 13:57:18;;;;;;;3.83;2.42;;;31.30;99.90;;;;;;5050154;28;20045;-84
2022/08/22 14:00:38;;;;;;;4.30;2.50;;;30.60;99.90;;;;;;5049898;28;20042;-85
2022/08/22 14:03:44;;;;;;;;;;;29.80;99.90;;;;;;5038048;28;20049;-83
2022/08/22 14:06:43;;;;;;;7.47;2.05;;;29.60;99.90;;;;;;5060208;28;20019;-84
2022/08/22 14:09:59;;;;;;;3.00;2.20;;;30.40;99.90;;;;;;5053040;28;20060;-83
2022/08/22 14:13:08;;;;;;;5.80;2.15;;;31.90;99.90;;;;;;5049350;28;20313;-85
2022/08/22 14:16:01;;;;;;;4.72;2.30;;;33.20;99.90;;;;;;5052374;28;20143;-86
2022/08/22 14:18:55;;;;;;;4.43;2.03;;;34.90;99.90;;;;;;5055041;28;20342;-87
2022/08/22 14:21:50;;;;;;;2.72;2.35;;;36.80;99.90;;;;;;5045654;28;20468;-84
2022/08/22 14:24:44;;;;;;;3.00;2.15;;;35.80;99.90;;;;;;5043832;28;20067;-84
2022/08/22 14:27:51;;;;;;;5.72;2.50;;;35.40;99.90;;;;;;5031529;28;20053;-84
2022/08/22 14:30:58;;;;;;;3.20;2.10;;;36.00;99.90;;;;;;5033265;28;20051;-86
2022/08/22 14:33:57;;;;;;;3.53;1.90;;;36.00;99.90;;;;;;5055122;28;20179;-84
2022/08/22 14:37:12;;;;;;;5.93;2.17;;;35.00;99.90;;;;;;5064568;28;20045;-88
2022/08/22 14:40:08;;;;;;;4.32;2.05;;;34.90;99.90;;;;;;5059672;28;20048;-86
2022/08/22 14:43:22;;;;;;;3.03;1.90;;;34.60;99.90;;;;;;5051063;28;20120;-85
2022/08/22 14:46:19;;;;;;;3.75;2.08;;;34.90;99.90;;;;;;5067948;28;20041;-82
2022/08/22 14:49:19;;;;;;;2.95;2.35;;;35.60;99.90;;;;;;5071099;28;20055;-85
2022/08/22 14:52:28;;;;;;;4.25;2.20;;;36.10;99.90;;;;;;5072118;28;20034;-84
2022/08/22 14:55:22;;;;;;;3.33;1.92;;;35.80;99.90;;;;;;5066129;28;20063;-86
2022/08/22 14:58:18;;;;;;;3.38;2.13;;;35.80;99.90;;;;;;5063575;28;20060;-85
2022/08/22 15:01:19;;;;;;;4.50;2.00;;;35.80;99.90;;;;;;5067890;28;20052;-84
2022/08/22 15:04:18;;;;;;;8.70;1.98;;;35.30;99.90;;;;;;5057822;28;20045;-85
2022/08/22 15:07:08;;;;;;;2.83;1.90;;;35.50;99.90;;;;;;5061209;28;20049;-85
2022/08/22 15:10:36;;;;;;;3.80;2.42;;;35.10;99.90;;;;;;5050772;28;20408;-84
2022/08/22 15:13:28;;;;;;;3.17;2.15;;;33.60;99.90;;;;;;5036639;28;20116;-86
2022/08/22 15:16:22;;;;;;;3.55;2.38;;;33.50;99.90;;;;;;5038078;28;20050;-87
2022/08/22 15:19:26;;;;;;;2.70;1.92;;;33.60;99.90;;;;;;5063672;28;20045;-86
2022/08/22 15:22:20;;;;;;;4.97;2.35;;;34.20;99.90;;;;;;5055934;28;20053;-86
2022/08/22 15:25:20;;;;;;;4.40;2.05;;;34.60;99.90;;;;;;5064714;28;20164;-88
2022/08/22 15:28:19;;;;;;;2.67;1.90;;;34.90;99.90;;;;;;5055452;28;20045;-88
2022/08/22 15:31:14;;;;;;;3.90;2.17;;;35.10;99.90;;;;;;5069143;28;20055;-90
2022/08/22 15:34:27;;;;;;;3.47;1.77;;;34.10;99.90;;;;;;5060833;28;20068;-89
2022/08/22 15:37:18;;;;;;;2.78;2.00;;;33.90;99.90;;;;;;5060791;28;20466;-88
2022/08/22 15:40:14;;;;;;;3.53;2.17;;;33.30;99.90;;;;;;5054593;28;20040;-85
2022/08/22 15:43:19;;;;;;;3.42;1.90;;;33.00;99.90;;;;;;5022517;28;20069;-87
2022/08/22 15:46:19;;;;;;;2.92;1.95;;;33.90;99.90;;;;;;5039651;28;20060;-87
2022/08/22 15:49:32;;;;;;;5.25;2.50;;;34.10;99.90;;;;;;5053159;28;20456;-88
2022/08/22 15:52:29;;;;;;;4.78;2.28;;;33.80;99.90;;;;;;5041396;28;20049;-86
2022/08/22 15:55:21;;;;;;;3.97;2.10;;;33.80;99.90;;;;;;5053611;28;20052;-85
2022/08/22 15:58:19;;;;;;;4.18;2.08;;;32.60;99.90;;;;;;5047362;28;20376;-88
2022/08/22 16:01:22;;;;;;;3.58;2.45;;;31.40;99.90;;;;;;5044449;28;20131;-89
2022/08/22 16:04:14;;;;;;;5.07;2.10;;;31.10;99.90;;;;;;5049343;28;20060;-86
2022/08/22 16:07:24;;;;;;;2.70;2.10;;;31.50;99.90;;;;;;5051440;28;20052;-86
2022/08/22 16:10:23;;;;;;;4.47;2.33;;;31.40;99.90;;;;;;5052900;28;20041;-87